Time;durP1;ratioP1;P1;durP2;ratioP2;P2;SDS_P1;SDS_P2;PMS_P1;PMS_P2;Temp;Humidity;BMP_temperature;BMP_pressure;BME280_temperature;BME280_humidity;BME280_pressure;Samples;Min_cycle;Max_cycle;Signal;HPM_P1;HPM_P2
2024/01/22 00:02:06;;;;;;;176.30;23.30;;;-3.70;99.90;;;;;;4430164;28;658638;-68
2024/01/22 00:04:53;;;;;;;52.50;20.57;;;-3.80;99.90;;;;;;4402280;28;659312;-69
2024/01/22 00:07:40;;;;;;;43.37;15.07;;;-3.80;99.90;;;;;;4427258;28;659291;-68
2024/01/22 00:10:28;;;;;;;50.70;18.30;;;-3.70;99.90;;;;;;4415268;28;659120;-69
2024/01/22 00:13:17;;;;;;;46.97;16.63;;;-3.60;99.90;;;;;;4428978;28;659204;-67
2024/01/22 00:16:05;;;;;;;38.93;13.73;;;-3.60;99.90;;;;;;4403581;28;660455;-67
2024/01/22 00:18:52;;;;;;;48.30;16.13;;;-3.40;99.90;;;;;;4420643;28;658841;-68
2024/01/22 00:21:42;;;;;;;40.30;13.17;;;-3.30;99.90;;;;;;4418793;28;658864;-67
2024/01/22 00:24:29;;;;;;;43.87;16.17;;;-2.90;99.90;;;;;;4404041;28;659258;-67
2024/01/22 00:27:16;;;;;;;43.60;14.73;;;-2.80;99.90;;;;;;4429517;28;659182;-68
2024/01/22 00:30:06;;;;;;;29.40;11.60;;;-2.80;99.90;;;;;;4400335;28;658779;-68
2024/01/22 00:32:53;;;;;;;41.00;13.73;;;-2.90;99.90;;;;;;4404303;28;658904;-68
2024/01/22 00:35:40;;;;;;;33.03;12.00;;;-2.90;99.90;;;;;;4428460;28;659218;-67
2024/01/22 00:38:27;;;;;;;36.47;12.93;;;-2.90;99.90;;;;;;4400126;28;658857;-68
2024/01/22 00:41:15;;;;;;;43.80;13.60;;;-2.80;99.90;;;;;;4423774;28;658688;-67
2024/01/22 00:44:02;;;;;;;40.53;12.80;;;-2.80;99.90;;;;;;4424912;28;659105;-68
2024/01/22 00:46:50;;;;;;;33.30;12.23;;;-2.90;99.90;;;;;;4404539;28;659372;-67
2024/01/22 00:49:37;;;;;;;43.08;14.35;;;-3.00;99.90;;;;;;4381898;28;659117;-68
2024/01/22 00:52:25;;;;;;;42.07;12.87;;;-3.10;99.90;;;;;;4423961;28;659347;-68
2024/01/22 00:55:12;;;;;;;30.13;11.13;;;-3.20;99.90;;;;;;4432830;28;658953;-67
2024/01/22 00:57:59;;;;;;;35.20;10.83;;;-3.10;99.90;;;;;;4396539;28;659554;-67
2024/01/22 01:00:46;;;;;;;32.33;10.63;;;-3.10;99.90;;;;;;4419204;28;658793;-67
2024/01/22 01:03:35;;;;;;;32.63;10.93;;;-3.10;99.90;;;;;;4402353;28;658515;-68
2024/01/22 01:06:22;;;;;;;34.43;11.00;;;-2.90;99.90;;;;;;4406289;28;658980;-68
2024/01/22 01:09:10;;;;;;;33.60;11.63;;;-3.10;99.90;;;;;;4422313;28;659244;-67
2024/01/22 01:11:57;;;;;;;31.70;10.38;;;-3.10;99.90;;;;;;4410236;28;658954;-68
2024/01/22 01:14:45;;;;;;;33.37;10.77;;;-3.10;99.90;;;;;;4425547;28;658993;-67
2024/01/22 01:17:32;;;;;;;34.07;11.57;;;-3.30;99.90;;;;;;4417460;28;658207;-67
2024/01/22 01:20:21;;;;;;;31.23;10.73;;;-3.40;99.90;;;;;;4398083;28;659800;-67
2024/01/22 01:23:08;;;;;;;32.73;11.23;;;-3.30;99.90;;;;;;4398874;28;658567;-67
2024/01/22 01:25:55;;;;;;;27.30;9.97;;;-3.30;99.90;;;;;;4424633;28;659658;-67
2024/01/22 01:28:42;;;;;;;34.83;11.17;;;-3.40;99.90;;;;;;4407855;28;657663;-68
2024/01/22 01:31:29;;;;;;;30.07;10.37;;;-3.60;99.90;;;;;;4423239;28;659451;-67
2024/01/22 01:34:17;;;;;;;30.03;10.57;;;-3.60;99.90;;;;;;4415821;28;658581;-67
2024/01/22 01:37:05;;;;;;;35.57;11.23;;;-3.90;99.90;;;;;;4403699;28;659366;-67
2024/01/22 01:39:52;;;;;;;36.97;12.60;;;-4.10;99.90;;;;;;4409923;28;658709;-68
2024/01/22 01:42:43;;;;;;;57.40;18.17;;;-4.20;99.90;;;;;;4420585;28;659733;-67
2024/01/22 01:45:30;;;;;;;60.07;18.17;;;-4.20;99.90;;;;;;4417620;28;659441;-67
2024/01/22 01:48:17;;;;;;;55.70;17.00;;;-4.20;99.90;;;;;;4414109;28;658352;-68
2024/01/22 01:51:05;;;;;;;54.27;17.47;;;-4.20;99.90;;;;;;4425380;28;659452;-67
2024/01/22 01:53:54;;;;;;;39.80;12.30;;;-4.40;99.90;;;;;;4401082;28;658581;-69
2024/01/22 01:56:41;;;;;;;36.07;11.23;;;-4.50;99.90;;;;;;4419464;28;659048;-67
2024/01/22 01:59:28;;;;;;;34.33;11.10;;;-4.50;99.90;;;;;;4402553;28;658918;-68
2024/01/22 02:02:15;;;;;;;40.17;12.93;;;-4.40;99.90;;;;;;4407711;28;659015;-68
2024/01/22 02:05:03;;;;;;;36.37;12.77;;;-4.40;99.90;;;;;;4384765;28;658658;-68
2024/01/22 02:07:50;;;;;;;30.63;10.83;;;-4.40;99.90;;;;;;4422858;28;658748;-67
2024/01/22 02:10:39;;;;;;;40.23;12.70;;;-4.30;99.90;;;;;;4417462;28;658841;-69
2024/01/22 02:13:28;;;;;;;38.67;13.57;;;-4.50;99.90;;;;;;4421228;28;658212;-67
2024/01/22 02:16:15;;;;;;;44.03;13.43;;;-4.50;99.90;;;;;;4397430;28;658791;-67
2024/01/22 02:19:02;;;;;;;46.30;15.70;;;-4.70;99.90;;;;;;4405094;28;658613;-68
2024/01/22 02:21:50;;;;;;;44.43;16.73;;;-4.70;99.90;;;;;;4424893;28;658694;-68
2024/01/22 02:24:38;;;;;;;49.47;16.30;;;-4.80;99.90;;;;;;4427896;28;659117;-67
2024/01/22 02:27:25;;;;;;;51.47;18.07;;;-4.80;99.90;;;;;;4397243;28;659475;-67
2024/01/22 02:30:13;;;;;;;45.67;16.17;;;-4.90;99.90;;;;;;4400833;28;659009;-69
2024/01/22 02:33:00;;;;;;;49.27;16.80;;;-5.00;99.90;;;;;;4425466;28;659538;-67
2024/01/22 02:35:48;;;;;;;48.57;15.37;;;-5.00;99.90;;;;;;4392759;28;659000;-68
2024/01/22 02:38:35;;;;;;;42.77;14.27;;;-4.80;99.90;;;;;;4417799;28;659308;-67
2024/01/22 02:41:24;;;;;;;39.03;12.43;;;-4.90;99.90;;;;;;4432570;28;659335;-69
2024/01/22 02:44:11;;;;;;;35.13;12.17;;;-4.90;99.90;;;;;;4457988;28;658308;-67
2024/01/22 02:46:58;;;;;;;37.40;12.73;;;-5.00;99.90;;;;;;4433075;28;658970;-67
2024/01/22 02:49:45;;;;;;;42.20;13.93;;;-4.90;99.90;;;;;;4457942;28;658912;-67
2024/01/22 02:52:32;;;;;;;42.22;14.70;;;-5.10;99.90;;;;;;4429091;28;658942;-68
2024/01/22 02:55:20;;;;;;;38.77;11.77;;;-5.10;99.90;;;;;;4462471;28;658530;-67
2024/01/22 02:58:08;;;;;;;45.93;13.90;;;-5.00;99.90;;;;;;4455389;28;659131;-67
2024/01/22 03:00:55;;;;;;;35.90;10.40;;;-5.00;99.90;;;;;;4439816;28;659585;-67
2024/01/22 03:03:42;;;;;;;48.53;14.95;;;-4.90;99.90;;;;;;4436789;28;658836;-68
2024/01/22 03:06:30;;;;;;;27.90;9.73;;;-4.90;99.90;;;;;;4452847;28;659490;-67
2024/01/22 03:09:17;;;;;;;33.53;10.90;;;-3.90;99.90;;;;;;4446237;28;657433;-67
2024/01/22 03:12:04;;;;;;;18.47;6.00;;;-3.60;99.90;;;;;;4429915;28;659046;-67
2024/01/22 03:14:53;;;;;;;18.33;7.00;;;-3.40;99.90;;;;;;4458429;28;657967;-67
2024/01/22 03:17:40;;;;;;;25.20;8.53;;;-3.20;99.90;;;;;;4423963;28;658383;-67
2024/01/22 03:20:27;;;;;;;45.73;13.07;;;-3.40;99.90;;;;;;4430543;28;657808;-67
2024/01/22 03:23:15;;;;;;;42.37;10.53;;;-3.60;99.90;;;;;;4432708;28;658811;-68
2024/01/22 03:26:02;;;;;;;38.10;11.00;;;-3.70;99.90;;;;;;4462995;28;658303;-67
2024/01/22 03:28:49;;;;;;;33.33;8.67;;;-3.70;99.90;;;;;;4437825;28;659276;-67
2024/01/22 03:31:38;;;;;;;40.10;11.50;;;-3.60;99.90;;;;;;4455588;28;657488;-67
2024/01/22 03:34:25;;;;;;;40.57;11.60;;;-3.60;99.90;;;;;;4432466;28;659298;-67
2024/01/22 03:37:12;;;;;;;36.67;11.67;;;-3.70;99.90;;;;;;4431201;28;658726;-68
2024/01/22 03:40:00;;;;;;;40.63;11.00;;;-3.70;99.90;;;;;;4451370;28;659247;-67
2024/01/22 03:42:47;;;;;;;45.17;11.13;;;-3.80;99.90;;;;;;4444697;28;658837;-67
2024/01/22 03:45:34;;;;;;;35.13;10.73;;;-3.90;99.90;;;;;;4437004;28;658601;-67
2024/01/22 03:48:22;;;;;;;39.83;8.93;;;-3.90;99.90;;;;;;4457022;27;658938;-67
2024/01/22 03:51:10;;;;;;;36.83;9.15;;;-4.00;99.90;;;;;;4426077;28;659047;-67
2024/01/22 03:53:57;;;;;;;34.47;9.93;;;-4.10;99.90;;;;;;4443810;28;657286;-67
2024/01/22 03:56:44;;;;;;;27.53;8.47;;;-4.20;99.90;;;;;;4426425;28;658206;-67
2024/01/22 03:59:31;;;;;;;31.23;8.68;;;-4.20;99.90;;;;;;4453329;27;657519;-68
2024/01/22 04:02:18;;;;;;;27.20;7.23;;;-4.20;99.90;;;;;;4435794;28;657935;-67
2024/01/22 04:05:09;;;;;;;22.03;6.43;;;-4.10;99.90;;;;;;4454943;28;657488;-67
2024/01/22 04:07:57;;;;;;;20.50;6.30;;;-4.00;99.90;;;;;;4433759;28;657461;-67
2024/01/22 04:10:44;;;;;;;27.67;6.90;;;-4.10;99.90;;;;;;4419638;28;658208;-68
2024/01/22 04:13:31;;;;;;;20.37;6.37;;;-4.10;99.90;;;;;;4454442;28;657776;-68
2024/01/22 04:16:19;;;;;;;23.17;6.50;;;-4.30;99.90;;;;;;4434700;28;657525;-67
2024/01/22 04:19:06;;;;;;;19.00;5.87;;;-4.30;99.90;;;;;;4448325;28;657781;-67
2024/01/22 04:21:54;;;;;;;20.43;5.80;;;-4.20;99.90;;;;;;4430499;28;657678;-67
2024/01/22 04:24:42;;;;;;;19.30;5.73;;;-4.30;99.90;;;;;;4447688;28;657827;-67
2024/01/22 04:27:29;;;;;;;11.87;4.30;;;-4.20;99.90;;;;;;4421940;28;657672;-67
2024/01/22 04:30:16;;;;;;;16.37;5.50;;;-4.10;99.90;;;;;;4454733;28;657932;-67
2024/01/22 04:33:03;;;;;;;14.40;5.20;;;-4.00;99.90;;;;;;4432136;28;657534;-67
2024/01/22 04:35:52;;;;;;;18.70;4.77;;;-4.20;99.90;;;;;;4457008;28;658007;-67
2024/01/22 04:38:40;;;;;;;11.63;4.50;;;-4.20;99.90;;;;;;4434166;28;658645;-67
2024/01/22 04:41:28;;;;;;;13.40;4.93;;;-4.30;99.90;;;;;;4421772;28;657823;-68
2024/01/22 04:44:15;;;;;;;13.97;5.07;;;-4.40;99.90;;;;;;4454687;28;658878;-67
2024/01/22 04:47:02;;;;;;;12.57;4.43;;;-4.20;99.90;;;;;;4433141;28;657790;-68
2024/01/22 04:49:50;;;;;;;16.97;4.47;;;-4.10;99.90;;;;;;4458643;28;658430;-67
2024/01/22 04:52:37;;;;;;;15.63;4.87;;;-4.10;99.90;;;;;;4456966;28;657418;-68
2024/01/22 04:55:26;;;;;;;13.37;5.10;;;-4.20;99.90;;;;;;4454728;28;658392;-67
2024/01/22 04:58:13;;;;;;;17.27;6.10;;;-4.20;99.90;;;;;;4436142;28;658171;-67
2024/01/22 05:01:00;;;;;;;15.33;6.60;;;-4.40;99.90;;;;;;4457622;28;657686;-67
2024/01/22 05:03:47;;;;;;;17.47;7.47;;;-4.50;99.90;;;;;;4430311;28;658307;-68
2024/01/22 05:06:34;;;;;;;17.58;6.13;;;-4.70;99.90;;;;;;4458047;28;658359;-67
2024/01/22 05:09:22;;;;;;;13.73;4.67;;;-4.80;1.00;;;;;;4454964;28;658160;-67
2024/01/22 05:12:10;;;;;;;17.93;5.90;;;-4.70;99.90;;;;;;4430649;28;656309;-67
2024/01/22 05:14:57;;;;;;;14.13;5.63;;;-4.60;1.00;;;;;;4425632;28;657948;-68
2024/01/22 05:17:45;;;;;;;14.53;4.50;;;-4.50;1.00;;;;;;4455452;28;657852;-67
2024/01/22 05:20:32;;;;;;;13.47;4.73;;;-4.50;1.00;;;;;;4453734;28;657021;-67
2024/01/22 05:23:20;;;;;;;13.23;5.50;;;-4.40;1.00;;;;;;4441666;28;657515;-67
2024/01/22 05:26:08;;;;;;;16.10;4.50;;;-4.40;99.90;;;;;;4449831;28;657285;-68
2024/01/22 05:28:56;;;;;;;12.27;4.23;;;-4.40;1.00;;;;;;4452019;28;658863;-67
2024/01/22 05:31:43;;;;;;;11.33;4.43;;;-4.40;1.00;;;;;;4425669;28;657589;-67
2024/01/22 05:34:30;;;;;;;11.50;4.70;;;-4.40;99.90;;;;;;4456948;28;656497;-67
2024/01/22 05:37:18;;;;;;;16.33;5.03;;;-4.40;1.00;;;;;;4433328;28;658088;-68
2024/01/22 05:40:06;;;;;;;17.57;5.13;;;-4.40;1.00;;;;;;4450773;28;657329;-67
2024/01/22 05:42:53;;;;;;;20.17;6.20;;;-4.50;1.00;;;;;;4426086;28;656687;-67
2024/01/22 05:45:42;;;;;;;15.10;5.50;;;-4.60;99.90;;;;;;4451978;28;656857;-67
2024/01/22 05:48:29;;;;;;;27.27;8.13;;;-4.60;99.90;;;;;;4425225;28;658011;-67
2024/01/22 05:51:16;;;;;;;58.77;16.10;;;-4.50;1.00;;;;;;4459303;28;657474;-67
2024/01/22 05:54:04;;;;;;;17.90;5.43;;;-4.50;99.90;;;;;;4418531;28;657926;-67
2024/01/22 05:56:51;;;;;;;40.97;10.87;;;-4.50;99.90;;;;;;4454763;28;658288;-67
2024/01/22 05:59:39;;;;;;;42.23;11.00;;;-4.40;99.90;;;;;;4424610;28;659016;-67
2024/01/22 06:02:29;;;;;;;31.93;10.00;;;-4.40;40.20;;;;;;4457631;28;658788;-67
2024/01/22 06:05:16;;;;;;;126.97;47.37;;;-4.50;1.00;;;;;;4435118;28;659069;-67
2024/01/22 06:08:04;;;;;;;63.67;22.30;;;-4.50;1.00;;;;;;4435711;28;658772;-67
2024/01/22 06:10:51;;;;;;;116.30;43.90;;;-4.70;99.90;;;;;;4455321;28;657661;-67
2024/01/22 06:13:39;;;;;;;85.72;30.63;;;-4.80;90.40;;;;;;4427022;28;660212;-67
2024/01/22 06:16:26;;;;;;;74.50;30.27;;;-4.90;99.90;;;;;;4452761;28;658722;-67
2024/01/22 06:19:15;;;;;;;59.20;24.63;;;-5.00;1.00;;;;;;4429596;28;658919;-67
2024/01/22 06:22:03;;;;;;;44.00;19.60;;;-4.80;1.00;;;;;;4441358;28;657553;-68
2024/01/22 06:24:51;;;;;;;40.23;17.60;;;-4.70;1.00;;;;;;4456139;28;658036;-67
2024/01/22 06:27:39;;;;;;;34.53;14.17;;;-4.60;1.00;;;;;;4431356;28;657950;-68
2024/01/22 06:30:26;;;;;;;34.23;14.10;;;-4.60;1.00;;;;;;4447802;28;657592;-67
2024/01/22 06:33:13;;;;;;;31.87;10.90;;;-4.60;1.00;;;;;;4426358;28;658353;-68
2024/01/22 06:36:02;;;;;;;29.93;12.00;;;-4.50;1.00;;;;;;4461021;28;657988;-67
2024/01/22 06:38:49;;;;;;;28.13;11.43;;;-4.30;1.00;;;;;;4441407;28;657436;-67
2024/01/22 06:41:36;;;;;;;33.47;12.77;;;-4.30;1.00;;;;;;4448713;28;658296;-67
2024/01/22 06:44:23;;;;;;;32.30;11.93;;;-4.20;1.00;;;;;;4433048;28;658401;-67
2024/01/22 06:47:10;;;;;;;23.63;8.63;;;-4.10;1.00;;;;;;4434149;28;658528;-67
2024/01/22 06:49:57;;;;;;;20.98;6.25;;;-3.90;1.00;;;;;;4437851;27;657340;-68
2024/01/22 06:52:47;;;;;;;20.77;7.93;;;-3.70;99.90;;;;;;4456471;28;656938;-67
2024/01/22 06:55:34;;;;;;;10.93;5.00;;;-3.50;99.90;;;;;;4429884;28;657997;-67
2024/01/22 06:58:22;;;;;;;22.13;8.00;;;-3.40;99.90;;;;;;4444191;28;657861;-67
2024/01/22 07:01:09;;;;;;;15.80;6.53;;;-3.30;99.90;;;;;;4415627;28;658556;-68
2024/01/22 07:03:57;;;;;;;18.88;6.78;;;-3.00;1.00;;;;;;4458649;28;657262;-67
2024/01/22 07:06:44;;;;;;;25.63;9.07;;;-2.90;1.00;;;;;;4430234;28;656162;-67
2024/01/22 07:09:32;;;;;;;31.60;13.00;;;-2.70;47.00;;;;;;4453208;27;657643;-68
2024/01/22 07:12:20;;;;;;;55.27;21.87;;;-2.70;99.90;;;;;;4437942;28;659713;-67
2024/01/22 07:15:12;;;;;;;25.03;10.67;;;-2.60;1.00;;;;;;4440587;28;658892;-68
2024/01/22 07:17:59;;;;;;;111.17;39.27;;;-2.60;1.00;;;;;;4426664;28;658866;-67
2024/01/22 07:20:46;;;;;;;102.77;36.10;;;-2.60;1.00;;;;;;4452818;27;659367;-67
2024/01/22 07:23:33;;;;;;;74.67;26.10;;;-2.40;1.00;;;;;;4425293;28;659024;-68
2024/01/22 07:26:22;;;;;;;40.57;14.27;;;-2.30;1.00;;;;;;4459080;27;657309;-67
2024/01/22 07:29:10;;;;;;;36.23;13.10;;;-2.00;1.00;;;;;;4422099;28;657693;-68
2024/01/22 07:31:57;;;;;;;21.53;8.33;;;-1.70;1.00;;;;;;4450670;28;657347;-67
2024/01/22 07:34:44;;;;;;;14.23;5.90;;;-1.50;99.90;;;;;;4441179;27;656917;-68
2024/01/22 07:37:31;;;;;;;17.33;5.87;;;-1.20;99.90;;;;;;4455851;28;657161;-68
2024/01/22 07:40:18;;;;;;;16.63;5.97;;;-1.00;99.90;;;;;;4433241;28;657585;-67
2024/01/22 07:43:07;;;;;;;19.07;7.33;;;-0.70;99.90;;;;;;4443868;28;658665;-68
2024/01/22 07:45:54;;;;;;;21.43;7.37;;;-0.40;99.90;;;;;;4431492;28;658227;-67
2024/01/22 07:48:41;;;;;;;18.77;6.80;;;-0.20;99.90;;;;;;4455295;28;657987;-68
2024/01/22 07:51:29;;;;;;;21.40;6.67;;;0.10;99.90;;;;;;4439970;28;657987;-67
2024/01/22 07:54:16;;;;;;;19.40;6.97;;;0.30;99.90;;;;;;4449091;28;656968;-68
2024/01/22 07:57:03;;;;;;;18.63;7.10;;;0.40;99.90;;;;;;4423100;28;657222;-68
2024/01/22 07:59:52;;;;;;;16.00;6.23;;;0.50;99.90;;;;;;4443160;28;657280;-68
2024/01/22 08:02:40;;;;;;;26.37;7.30;;;0.70;99.90;;;;;;4416391;28;657897;-68
2024/01/22 08:05:28;;;;;;;18.03;7.83;;;0.80;99.90;;;;;;4457191;28;657132;-68
2024/01/22 08:08:15;;;;;;;18.57;7.50;;;1.00;99.90;;;;;;4442389;28;657547;-67
2024/01/22 08:11:02;;;;;;;18.53;8.13;;;1.30;99.90;;;;;;4455961;28;657089;-69
2024/01/22 08:13:50;;;;;;;22.50;8.40;;;1.60;99.90;;;;;;4456025;28;656938;-68
2024/01/22 08:16:38;;;;;;;20.03;7.60;;;1.80;99.90;;;;;;4440502;28;656468;-68
2024/01/22 08:19:26;;;;;;;16.07;7.03;;;2.00;99.90;;;;;;4432415;28;657168;-68
2024/01/22 08:22:13;;;;;;;20.93;7.67;;;2.10;99.90;;;;;;4438769;28;657343;-68
2024/01/22 08:25:00;;;;;;;20.10;7.90;;;2.20;99.90;;;;;;4461787;28;656463;-68
2024/01/22 08:27:47;;;;;;;16.13;7.15;;;2.50;99.90;;;;;;4444540;28;656742;-69
2024/01/22 08:30:35;;;;;;;19.20;7.13;;;2.80;99.90;;;;;;4452581;28;656927;-68
2024/01/22 08:33:23;;;;;;;22.23;8.00;;;3.00;99.90;;;;;;4448554;28;656968;-68
2024/01/22 08:36:10;;;;;;;21.60;8.40;;;3.30;99.90;;;;;;4423113;28;657158;-68
2024/01/22 08:38:57;;;;;;;20.20;8.68;;;3.80;99.90;;;;;;4435065;28;657549;-69
2024/01/22 08:41:45;;;;;;;19.70;8.67;;;4.50;99.90;;;;;;4456406;28;657350;-68
2024/01/22 08:44:32;;;;;;;26.10;9.60;;;5.10;99.90;;;;;;4454384;28;657032;-68
2024/01/22 08:47:19;;;;;;;19.57;7.67;;;5.30;99.90;;;;;;4429307;28;657590;-69
2024/01/22 08:50:09;;;;;;;8.87;3.80;;;5.30;99.90;;;;;;4450257;28;656784;-68
2024/01/22 08:52:56;;;;;;;3.47;1.30;;;4.80;99.90;;;;;;4429716;28;655272;-68
2024/01/22 08:55:43;;;;;;;5.80;2.20;;;5.00;99.90;;;;;;4432608;28;656169;-68
2024/01/22 08:58:30;;;;;;;3.93;1.47;;;5.10;99.90;;;;;;4462565;28;655794;-68
2024/01/22 09:01:18;;;;;;;7.75;3.15;;;5.20;99.90;;;;;;4439881;28;656008;-69
2024/01/22 09:04:07;;;;;;;7.83;2.97;;;5.40;99.90;;;;;;4453893;28;656363;-67
2024/01/22 09:06:55;;;;;;;2.70;1.30;;;5.70;99.90;;;;;;4428039;28;657197;-68
2024/01/22 09:09:43;;;;;;;5.80;1.57;;;5.90;99.90;;;;;;4435218;28;655617;-68
2024/01/22 09:12:30;;;;;;;7.87;1.30;;;6.00;99.90;;;;;;4457854;28;656815;-68
2024/01/22 09:15:18;;;;;;;4.77;1.80;;;6.50;99.90;;;;;;4445474;28;655499;-68
2024/01/22 09:18:06;;;;;;;3.10;0.63;;;6.50;99.90;;;;;;4456213;28;655908;-67
2024/01/22 09:20:54;;;;;;;5.73;2.23;;;6.60;99.90;;;;;;4443679;28;655691;-68
2024/01/22 09:23:43;;;;;;;4.73;1.90;;;6.70;99.90;;;;;;4445069;28;655642;-68
2024/01/22 09:26:30;;;;;;;2.63;1.03;;;7.00;99.90;;;;;;4428019;28;656337;-67
2024/01/22 09:29:17;;;;;;;2.28;1.30;;;7.00;99.90;;;;;;4437266;28;655717;-69
2024/01/22 09:32:05;;;;;;;3.87;1.33;;;7.30;99.90;;;;;;4457476;28;656145;-68
2024/01/22 09:34:53;;;;;;;5.40;1.73;;;7.10;99.90;;;;;;4433031;27;655100;-69
2024/01/22 09:37:40;;;;;;;6.33;1.40;;;6.60;99.90;;;;;;4457065;27;655995;-68
2024/01/22 09:40:32;;;;;;;2.80;1.17;;;6.50;99.90;;;;;;4448809;27;656366;-69
2024/01/22 09:43:19;;;;;;;3.30;1.50;;;6.40;99.90;;;;;;4434295;28;656308;-68
2024/01/22 09:46:06;;;;;;;2.67;1.07;;;6.50;99.90;;;;;;4458527;28;655273;-68
2024/01/22 09:48:54;;;;;;;4.50;1.70;;;6.70;99.90;;;;;;4440987;28;655615;-68
2024/01/22 09:51:42;;;;;;;2.80;1.47;;;6.80;99.90;;;;;;4459364;27;656156;-68
2024/01/22 09:54:30;;;;;;;0.87;0.60;;;6.70;99.90;;;;;;4420635;28;656954;-67
2024/01/22 09:57:18;;;;;;;3.77;1.57;;;6.70;99.90;;;;;;4451997;28;656271;-67
2024/01/22 10:00:07;;;;;;;1.43;0.80;;;7.00;99.90;;;;;;4426015;28;655888;-68
2024/01/22 10:02:55;;;;;;;6.43;2.20;;;6.90;99.90;;;;;;4439719;28;656219;-68
2024/01/22 10:05:42;;;;;;;2.27;1.00;;;6.80;99.90;;;;;;4444866;28;655346;-69
2024/01/22 10:08:30;;;;;;;3.10;1.03;;;6.70;99.90;;;;;;4448062;28;655747;-68
2024/01/22 10:11:17;;;;;;;1.93;0.70;;;6.60;99.90;;;;;;4445537;28;655450;-68
2024/01/22 10:14:06;;;;;;;1.13;0.70;;;6.60;99.90;;;;;;4460872;28;656323;-68
2024/01/22 10:16:53;;;;;;;7.53;2.50;;;6.50;99.90;;;;;;4437444;27;655589;-68
2024/01/22 10:19:40;;;;;;;10.27;2.30;;;6.60;99.90;;;;;;4460216;28;656018;-68
2024/01/22 10:22:28;;;;;;;6.10;2.50;;;6.60;99.90;;;;;;4445298;28;656824;-69
2024/01/22 10:25:15;;;;;;;5.40;1.63;;;6.60;99.90;;;;;;4459866;28;656140;-68
2024/01/22 10:28:12;;;;;;;3.40;1.40;;;6.70;99.90;;;;;;4437284;28;656043;-69
2024/01/22 10:31:05;;;;;;;5.70;2.50;;;6.70;99.90;;;;;;4435190;28;655835;-68
2024/01/22 10:33:55;;;;;;;2.60;1.40;;;6.70;99.90;;;;;;4409834;28;655709;-69
2024/01/22 10:36:42;;;;;;;1.20;0.80;;;6.80;99.90;;;;;;4459278;28;655872;-69
2024/01/22 10:39:30;;;;;;;4.78;1.83;;;6.70;99.90;;;;;;4454905;27;655477;-68
2024/01/22 10:42:18;;;;;;;8.53;3.17;;;6.60;99.90;;;;;;4457977;28;654903;-68
2024/01/22 10:45:07;;;;;;;4.93;2.40;;;6.50;99.90;;;;;;4433346;28;656682;-68
2024/01/22 10:47:55;;;;;;;2.70;1.50;;;6.60;99.90;;;;;;4436070;27;655819;-68
2024/01/22 10:50:42;;;;;;;4.07;2.00;;;6.60;99.90;;;;;;4430019;27;655391;-69
2024/01/22 10:53:30;;;;;;;4.03;1.63;;;6.70;99.90;;;;;;4447789;28;656703;-68
2024/01/22 10:56:19;;;;;;;8.23;2.77;;;6.50;99.90;;;;;;4458277;28;655668;-69
2024/01/22 10:59:10;;;;;;;7.70;3.70;;;6.60;99.90;;;;;;4452161;28;656086;-68
2024/01/22 11:01:58;;;;;;;12.00;3.77;;;6.60;99.90;;;;;;4416983;28;655517;-69
2024/01/22 11:04:47;;;;;;;11.53;4.40;;;6.80;99.90;;;;;;4452041;28;658031;-68
2024/01/22 11:07:34;;;;;;;10.40;4.22;;;6.80;99.90;;;;;;4434568;28;657289;-68
2024/01/22 11:10:23;;;;;;;14.07;4.07;;;6.90;99.90;;;;;;4456273;28;656712;-68
2024/01/22 11:13:10;;;;;;;12.70;4.23;;;6.90;99.90;;;;;;4419356;28;656609;-68
2024/01/22 11:15:57;;;;;;;6.97;2.88;;;6.70;99.90;;;;;;4437617;28;656572;-70
2024/01/22 11:18:54;;;;;;;18.27;5.40;;;6.60;99.90;;;;;;4463022;28;655920;-68
2024/01/22 11:21:43;;;;;;;9.77;3.00;;;6.50;99.90;;;;;;4433873;28;657217;-68
2024/01/22 11:24:30;;;;;;;13.67;5.23;;;6.30;99.90;;;;;;4434294;28;656472;-68
2024/01/22 11:27:18;;;;;;;16.37;6.83;;;6.20;99.90;;;;;;4425981;28;656911;-70
2024/01/22 11:30:29;;;;;;;26.67;13.40;;;6.20;1.00;;;;;;4450352;28;658116;-69
2024/01/22 11:33:32;;;;;;;27.37;12.17;;;6.20;1.00;;;;;;4422487;28;656873;-68
2024/01/22 11:36:23;;;;;;;18.40;9.20;;;6.40;1.00;;;;;;4433602;27;656405;-69
2024/01/22 11:39:12;;;;;;;25.37;7.93;;;6.50;1.00;;;;;;4436346;28;655998;-69
2024/01/22 11:41:59;;;;;;;17.17;6.93;;;6.50;1.00;;;;;;4431868;28;657404;-69
2024/01/22 11:44:48;;;;;;;20.47;5.93;;;6.60;99.90;;;;;;4456475;28;655420;-69
2024/01/22 11:47:35;;;;;;;20.60;6.90;;;6.60;99.90;;;;;;4426493;28;657103;-68
2024/01/22 11:50:23;;;;;;;19.23;6.53;;;6.60;1.00;;;;;;4434012;28;657200;-69
2024/01/22 11:53:11;;;;;;;20.20;6.20;;;6.50;99.90;;;;;;4447613;28;655571;-69
2024/01/22 11:56:02;;;;;;;9.00;3.90;;;6.40;99.90;;;;;;4426537;28;656365;-69
2024/01/22 11:58:52;;;;;;;13.80;5.07;;;6.40;1.00;;;;;;4418838;27;656358;-69
2024/01/22 12:01:42;;;;;;;16.40;6.03;;;6.30;1.00;;;;;;4437042;28;656263;-69
2024/01/22 12:04:29;;;;;;;20.33;7.20;;;6.30;99.90;;;;;;4427888;27;656892;-69
2024/01/22 12:07:16;;;;;;;14.83;5.37;;;6.20;1.00;;;;;;4451902;28;656386;-69
2024/01/22 12:10:05;;;;;;;14.32;4.53;;;6.20;1.00;;;;;;4428783;28;655505;-69
2024/01/22 12:12:55;;;;;;;11.50;4.00;;;6.20;1.00;;;;;;4445526;28;655195;-69
2024/01/22 12:15:43;;;;;;;7.30;3.20;;;6.10;1.00;;;;;;4441160;28;655854;-69
2024/01/22 12:18:30;;;;;;;10.83;2.57;;;6.20;1.00;;;;;;4448724;28;655330;-68
2024/01/22 12:21:17;;;;;;;6.30;2.20;;;6.10;1.00;;;;;;4438514;28;655243;-69
2024/01/22 12:24:12;;;;;;;3.15;1.25;;;6.00;43.20;;;;;;4462045;28;655965;-68
2024/01/22 12:26:59;;;;;;;10.13;2.70;;;6.00;1.00;;;;;;4430463;28;655897;-69
2024/01/22 12:29:48;;;;;;;10.35;4.13;;;6.00;1.00;;;;;;4459531;28;656218;-69
2024/01/22 12:32:36;;;;;;;8.63;3.57;;;6.00;99.90;;;;;;4431848;28;656655;-68
2024/01/22 12:35:23;;;;;;;11.43;4.27;;;6.10;99.90;;;;;;4437259;28;655739;-69
2024/01/22 12:38:12;;;;;;;6.43;2.27;;;6.30;99.90;;;;;;4453129;28;657504;-69
2024/01/22 12:41:00;;;;;;;11.77;3.90;;;6.40;99.90;;;;;;4426125;28;655827;-69
2024/01/22 12:43:48;;;;;;;10.07;4.47;;;6.50;99.90;;;;;;4442802;28;656542;-70
2024/01/22 12:46:37;;;;;;;8.05;3.45;;;6.40;99.90;;;;;;4456895;28;656462;-69
2024/01/22 12:49:24;;;;;;;6.80;3.23;;;6.50;99.90;;;;;;4440373;28;655306;-69
2024/01/22 12:52:12;;;;;;;9.00;3.60;;;6.70;99.90;;;;;;4447544;28;655416;-69
2024/01/22 12:55:01;;;;;;;6.00;1.77;;;7.00;99.90;;;;;;4437395;28;656411;-69
2024/01/22 12:57:48;;;;;;;7.30;2.30;;;7.30;99.90;;;;;;4444620;28;656358;-69
2024/01/22 13:00:35;;;;;;;6.20;2.80;;;7.20;99.90;;;;;;4458206;28;655803;-69
2024/01/22 13:03:24;;;;;;;4.63;2.03;;;7.70;99.90;;;;;;4445726;28;655686;-70
2024/01/22 13:06:11;;;;;;;8.67;2.93;;;8.10;99.90;;;;;;4459191;28;655588;-69
2024/01/22 13:08:58;;;;;;;5.13;1.60;;;8.80;99.90;;;;;;4441519;28;655836;-69
2024/01/22 13:11:46;;;;;;;7.73;3.50;;;8.80;99.90;;;;;;4455737;28;656525;-69
2024/01/22 13:14:34;;;;;;;7.63;2.67;;;9.00;99.90;;;;;;4433193;28;655303;-69
2024/01/22 13:17:21;;;;;;;6.43;2.70;;;9.00;99.90;;;;;;4464818;28;655628;-69
2024/01/22 13:20:11;;;;;;;10.73;3.83;;;8.70;99.90;;;;;;4439038;28;655984;-69
2024/01/22 13:22:59;;;;;;;2.80;1.50;;;9.00;99.90;;;;;;4443288;28;657023;-68
2024/01/22 13:25:47;;;;;;;7.37;3.27;;;8.10;99.90;;;;;;4462835;28;656569;-69
2024/01/22 13:28:34;;;;;;;9.13;3.47;;;7.60;99.90;;;;;;4432546;28;656039;-69
2024/01/22 13:31:21;;;;;;;10.93;3.93;;;7.40;99.90;;;;;;4453932;28;654964;-68
2024/01/22 13:34:08;;;;;;;12.77;3.93;;;7.40;99.90;;;;;;4421342;28;656856;-69
2024/01/22 13:36:57;;;;;;;9.87;3.97;;;7.30;99.90;;;;;;4446380;28;657269;-69
2024/01/22 13:39:44;;;;;;;12.47;4.20;;;7.60;99.90;;;;;;4432456;28;655941;-69
2024/01/22 13:42:32;;;;;;;14.17;4.80;;;7.80;99.90;;;;;;4443028;28;656655;-69
2024/01/22 13:45:19;;;;;;;11.63;4.47;;;7.50;99.90;;;;;;4436473;28;657022;-69
2024/01/22 13:48:07;;;;;;;10.97;4.23;;;7.10;99.90;;;;;;4462321;28;656285;-69
2024/01/22 13:50:56;;;;;;;11.27;3.70;;;7.10;1.00;;;;;;4433131;28;656649;-68
2024/01/22 13:53:45;;;;;;;10.93;4.30;;;6.70;1.00;;;;;;4436139;28;656238;-69
2024/01/22 13:56:35;;;;;;;13.40;3.90;;;6.60;53.80;;;;;;4454295;28;655318;-69
2024/01/22 13:59:23;;;;;;;11.83;4.50;;;6.80;1.00;;;;;;4438411;28;656805;-70
2024/01/22 14:02:10;;;;;;;14.03;5.33;;;6.90;15.20;;;;;;4447612;28;656208;-69
2024/01/22 14:04:57;;;;;;;13.67;4.80;;;6.90;25.50;;;;;;4441247;28;656953;-69
2024/01/22 14:07:44;;;;;;;14.27;5.00;;;6.90;29.00;;;;;;4464190;28;656542;-69
2024/01/22 14:10:33;;;;;;;17.33;5.63;;;6.70;29.80;;;;;;4460900;28;656120;-69
2024/01/22 14:13:21;;;;;;;14.73;5.70;;;6.60;28.60;;;;;;4427098;28;656978;-69
2024/01/22 14:16:08;;;;;;;16.37;6.33;;;6.40;30.30;;;;;;4418342;28;656554;-69